Time;durP1;ratioP1;P1;durP2;ratioP2;P2;SDS_P1;SDS_P2;PMS_P1;PMS_P2;Temp;Humidity;BMP_temperature;BMP_pressure;BME280_temperature;BME280_humidity;BME280_pressure;Samples;Min_cycle;Max_cycle;Signal;HPM_P1;HPM_P2
2022/07/15 00:01:45;;;;;;;7.70;2.85;;;;;;;22.54;39.25;100909.00;4182689;28;20041;-67
2022/07/15 00:03:48;;;;;;;7.28;2.85;;;;;;;22.52;39.33;100905.53;4183033;28;20098;-67
2022/07/15 00:05:51;;;;;;;7.07;2.33;;;;;;;22.51;39.74;100906.44;4182606;28;20033;-67
2022/07/15 00:07:55;;;;;;;5.00;2.50;;;;;;;22.51;39.83;100910.88;4181505;28;20056;-67
2022/07/15 00:10:18;;;;;;;5.43;2.60;;;;;;;22.47;39.88;100910.97;4183669;28;20037;-66
2022/07/15 00:12:21;;;;;;;7.97;2.72;;;;;;;22.43;39.98;100916.41;4180766;28;20723;-66
2022/07/15 00:14:24;;;;;;;6.93;2.15;;;;;;;22.40;40.06;100913.81;4180343;28;20111;-66
2022/07/15 00:16:27;;;;;;;8.35;2.45;;;;;;;22.32;40.52;100916.66;4182820;28;20073;-66
2022/07/15 00:18:30;;;;;;;4.68;2.47;;;;;;;22.26;40.38;100909.72;4183223;28;20490;-66
2022/07/15 00:20:34;;;;;;;5.05;2.15;;;;;;;22.22;40.41;100908.06;4182754;28;20037;-66
2022/07/15 00:22:37;;;;;;;5.07;2.30;;;;;;;22.12;40.90;100914.53;4181070;28;20128;-67
2022/07/15 00:24:41;;;;;;;3.75;2.20;;;;;;;22.07;41.05;100913.78;4183373;28;20037;-67
2022/07/15 00:26:44;;;;;;;3.88;2.08;;;;;;;22.01;41.41;100917.47;4185296;28;20037;-67
2022/07/15 00:28:47;;;;;;;7.10;2.75;;;;;;;21.99;41.45;100911.34;4182226;28;20045;-67
2022/07/15 00:30:51;;;;;;;6.10;2.25;;;;;;;21.98;41.54;100909.59;4182013;28;20111;-67
2022/07/15 00:32:53;;;;;;;6.22;2.15;;;;;;;21.95;41.16;100913.19;4181334;28;20120;-67
2022/07/15 00:34:56;;;;;;;5.05;1.88;;;;;;;21.93;41.61;100915.03;4181613;28;20139;-66
2022/07/15 00:36:59;;;;;;;7.63;1.95;;;;;;;21.89;41.60;100909.81;4180942;28;20499;-66
2022/07/15 00:39:03;;;;;;;4.85;2.22;;;;;;;21.86;41.69;100907.25;4183165;28;20036;-66
2022/07/15 00:41:07;;;;;;;4.90;2.17;;;;;;;21.83;41.82;100916.16;4182828;28;20045;-66
2022/07/15 00:43:11;;;;;;;4.68;2.00;;;;;;;21.77;41.93;100909.25;4181850;28;20410;-66
2022/07/15 00:45:15;;;;;;;4.90;2.97;;;;;;;21.76;42.03;100907.50;4181833;28;20044;-66
2022/07/15 00:47:17;;;;;;;7.28;2.50;;;;;;;21.74;42.21;100909.31;4179239;28;20096;-66
2022/07/15 00:49:21;;;;;;;3.33;1.80;;;;;;;21.71;42.59;100908.53;4173758;28;20068;-66
2022/07/15 00:51:24;;;;;;;7.70;2.15;;;;;;;21.66;42.91;100907.78;4180996;28;20129;-66
2022/07/15 00:53:31;;;;;;;8.18;2.25;;;;;;;21.59;43.13;100904.41;4181697;28;20040;-66
2022/07/15 00:55:38;;;;;;;4.93;1.98;;;;;;;21.51;43.51;100909.00;4181423;28;20126;-66
2022/07/15 00:57:45;;;;;;;4.97;2.20;;;;;;;21.43;43.73;100906.50;4182859;28;20450;-66
2022/07/15 00:59:48;;;;;;;5.18;2.17;;;;;;;21.35;43.96;100905.81;4176848;28;20041;-66
2022/07/15 01:01:53;;;;;;;6.50;2.25;;;;;;;21.31;43.82;100909.47;4164117;28;20042;-66
2022/07/15 01:03:56;;;;;;;5.47;2.35;;;;;;;21.20;44.21;100900.00;4179491;28;20066;-66
2022/07/15 01:05:59;;;;;;;7.32;2.20;;;;;;;21.13;44.46;100908.97;4181283;28;20461;-67
2022/07/15 01:08:03;;;;;;;5.35;2.28;;;;;;;21.10;44.41;100904.63;4177852;28;20116;-66
2022/07/15 01:10:06;;;;;;;5.47;2.25;;;;;;;21.09;44.68;100902.00;4165024;28;20051;-66
2022/07/15 01:12:10;;;;;;;6.43;2.05;;;;;;;21.00;44.87;100903.09;4163956;28;20137;-66
2022/07/15 01:14:14;;;;;;;6.53;2.38;;;;;;;21.02;44.82;100905.69;4180497;28;20072;-66
2022/07/15 01:16:18;;;;;;;4.72;2.42;;;;;;;20.97;45.12;100904.91;4176175;28;20124;-66
2022/07/15 01:18:21;;;;;;;8.48;2.80;;;;;;;20.93;45.15;100902.34;4166179;28;20107;-66
2022/07/15 01:20:24;;;;;;;4.80;2.13;;;;;;;20.88;45.06;100920.09;4187591;28;20037;-66
2022/07/15 01:22:33;;;;;;;5.45;2.55;;;;;;;20.84;45.53;100906.97;4171198;28;20104;-66
2022/07/15 01:24:37;;;;;;;;;;;;;;;20.52;46.26;100909.31;4165102;28;20123;-66
2022/07/15 01:26:49;;;;;;;8.48;2.95;;;;;;;20.49;46.11;100906.75;4182636;28;20291;-66
2022/07/15 01:28:55;;;;;;;7.55;3.05;;;;;;;20.46;46.03;100906.81;4180539;28;20493;-66
2022/07/15 01:30:58;;;;;;;7.25;2.50;;;;;;;20.49;45.63;100903.25;4185167;28;20037;-66
2022/07/15 01:33:05;;;;;;;5.68;2.60;;;;;;;20.39;45.80;100900.75;4180450;28;20566;-66
2022/07/15 01:35:10;;;;;;;5.43;2.40;;;;;;;20.33;46.25;100905.31;4206447;28;20040;-66
2022/07/15 01:37:15;;;;;;;4.00;2.05;;;;;;;20.34;46.70;100904.41;4173139;28;20051;-66
2022/07/15 01:39:25;;;;;;;7.20;2.70;;;;;;;20.32;46.44;100904.44;4168969;28;20037;-66
2022/07/15 01:41:40;;;;;;;5.32;2.25;;;;;;;20.33;46.35;100905.31;4156042;28;20045;-66
2022/07/15 01:43:48;;;;;;;6.85;2.70;;;;;;;20.37;46.37;100899.03;4174709;28;20033;-66
2022/07/15 01:45:51;;;;;;;5.82;2.95;;;;;;;20.31;46.65;100905.34;4177566;28;20449;-66
2022/07/15 01:48:02;;;;;;;5.53;2.50;;;;;;;20.28;46.69;100910.69;4180648;28;20061;-66
2022/07/15 01:50:18;;;;;;;5.28;2.28;;;;;;;20.23;47.00;100901.97;4171677;28;20420;-66
2022/07/15 01:52:28;;;;;;;6.05;2.22;;;;;;;20.22;46.67;100903.75;4175544;28;20059;-66
2022/07/15 01:54:33;;;;;;;4.90;2.28;;;;;;;20.19;46.20;100908.19;4180377;28;20107;-66
2022/07/15 01:56:38;;;;;;;8.05;2.50;;;;;;;20.12;46.76;100902.19;4180104;28;20037;-66
2022/07/15 01:58:41;;;;;;;7.68;2.85;;;;;;;20.12;47.13;100903.94;4180080;28;20131;-66
2022/07/15 02:00:46;;;;;;;6.97;2.38;;;;;;;20.12;46.87;100904.81;4159981;28;20045;-66
2022/07/15 02:02:49;;;;;;;5.65;2.17;;;;;;;20.11;47.28;100910.13;4178147;28;20069;-66
2022/07/15 02:04:55;;;;;;;6.05;2.47;;;;;;;20.08;47.03;100908.41;4174657;28;20045;-66
2022/07/15 02:06:58;;;;;;;6.85;2.30;;;;;;;20.10;46.82;100908.38;4177602;28;20049;-66
2022/07/15 02:09:06;;;;;;;9.98;2.72;;;;;;;20.14;47.11;100921.50;4195883;28;20139;-66
2022/07/15 02:11:15;;;;;;;5.82;2.63;;;;;;;20.20;47.01;100915.22;4180772;28;20063;-66
2022/07/15 02:13:22;;;;;;;5.57;2.65;;;;;;;20.26;45.75;100909.81;4166721;28;20038;-66
2022/07/15 02:15:33;;;;;;;5.40;2.70;;;;;;;20.31;45.57;100907.09;4180704;28;20048;-66
2022/07/15 02:17:38;;;;;;;6.55;3.00;;;;;;;20.36;45.23;100902.63;4177113;28;20029;-66
2022/07/15 02:19:41;;;;;;;6.13;2.65;;;;;;;20.40;44.93;100905.16;4169424;28;20037;-66
2022/07/15 02:21:44;;;;;;;7.00;2.47;;;;;;;20.42;45.03;100905.13;4153277;28;20491;-66
2022/07/15 02:23:47;;;;;;;7.75;2.58;;;;;;;20.49;44.89;100903.25;4195592;28;20135;-66
2022/07/15 02:25:50;;;;;;;16.23;2.97;;;;;;;20.57;44.16;100906.59;4180395;28;20033;-66
2022/07/15 02:28:02;;;;;;;4.43;2.40;;;;;;;20.56;44.39;100903.09;4180405;28;20599;-66
2022/07/15 02:30:09;;;;;;;5.03;2.92;;;;;;;20.51;44.25;100899.66;4182327;28;20032;-66
2022/07/15 02:32:13;;;;;;;6.57;2.75;;;;;;;20.56;44.46;100903.09;4163040;28;20041;-66
2022/07/15 02:34:17;;;;;;;10.70;2.75;;;;;;;20.57;43.94;100904.84;4179346;28;20045;-66
2022/07/15 02:36:20;;;;;;;7.35;3.20;;;;;;;20.54;44.44;100904.88;4178337;28;20040;-66
2022/07/15 02:38:24;;;;;;;5.32;2.83;;;;;;;20.57;44.07;100904.84;4180253;28;20115;-66
2022/07/15 02:40:28;;;;;;;;;;;;;;;20.37;44.54;100909.63;4172002;28;20092;-66
2022/07/15 02:42:32;;;;;;;6.40;2.55;;;;;;;20.35;44.72;100909.66;4179490;28;20398;-66
2022/07/15 02:44:39;;;;;;;9.30;2.50;;;;;;;20.40;44.41;100909.59;4179847;28;20099;-67
2022/07/15 02:46:43;;;;;;;5.95;2.10;;;;;;;20.42;44.42;100910.41;4179967;28;20557;-66
2022/07/15 02:48:46;;;;;;;7.05;1.98;;;;;;;20.38;44.68;100908.72;4178569;28;20060;-66
2022/07/15 02:50:49;;;;;;;3.17;1.80;;;;;;;20.38;44.32;100911.38;4177590;28;20462;-66
2022/07/15 02:52:52;;;;;;;8.55;2.30;;;;;;;20.41;44.43;100913.94;4178603;28;20033;-66
2022/07/15 02:54:55;;;;;;;5.10;2.33;;;;;;;20.43;44.10;100912.16;4179637;28;20125;-66
2022/07/15 02:56:58;;;;;;;7.75;2.90;;;;;;;20.40;44.41;100912.22;4180004;28;20457;-66
2022/07/15 02:59:03;;;;;;;7.72;2.47;;;;;;;20.41;44.11;100916.59;4180019;28;20518;-66
2022/07/15 03:01:07;;;;;;;5.28;2.30;;;;;;;20.40;44.26;100921.00;4172469;28;20041;-66
2022/07/15 03:03:10;;;;;;;8.25;2.40;;;;;;;20.38;44.52;100914.00;4160130;28;20053;-66
2022/07/15 03:05:16;;;;;;;5.00;2.50;;;;;;;20.31;44.78;100926.47;4209749;28;20043;-66
2022/07/15 03:07:19;;;;;;;7.85;3.00;;;;;;;20.30;44.76;100927.38;4196189;28;20083;-66
2022/07/15 03:09:22;;;;;;;7.22;2.53;;;;;;;20.24;45.16;100927.47;4174615;28;20037;-66
2022/07/15 03:11:25;;;;;;;5.10;2.47;;;;;;;20.27;44.93;100931.81;4163217;28;20164;-65
2022/07/15 03:13:29;;;;;;;8.50;2.40;;;;;;;20.22;45.06;100934.53;4180052;28;20042;-66
2022/07/15 03:15:31;;;;;;;8.40;2.67;;;;;;;20.29;45.35;100933.53;4179710;28;20053;-66
2022/07/15 03:17:36;;;;;;;9.20;2.55;;;;;;;20.27;45.08;100931.81;4162733;28;20046;-66
2022/07/15 03:19:39;;;;;;;9.00;2.53;;;;;;;20.28;45.06;100933.56;4177705;28;20051;-66
2022/07/15 03:21:42;;;;;;;7.47;3.03;;;;;;;20.21;45.15;100938.97;4178840;28;20103;-66
2022/07/15 03:23:47;;;;;;;;;;;;;;;20.18;44.81;100941.66;4180444;28;20044;-67
2022/07/15 03:25:50;;;;;;;7.60;2.90;;;;;;;20.09;45.03;100948.88;4179586;28;19921;-67
2022/07/15 03:27:53;;;;;;;6.65;2.60;;;;;;;20.05;45.33;100948.06;4179270;28;20047;-67
2022/07/15 03:29:55;;;;;;;9.32;2.67;;;;;;;20.07;45.60;100955.94;4178754;28;20087;-67
2022/07/15 03:31:58;;;;;;;11.63;3.00;;;;;;;20.12;45.41;100949.69;4181294;28;20037;-67
2022/07/15 03:34:03;;;;;;;5.03;2.63;;;;;;;20.17;45.24;100947.84;4180489;28;20128;-67
2022/07/15 03:36:06;;;;;;;4.70;2.45;;;;;;;20.01;45.61;100949.00;4178704;28;20522;-67
2022/07/15 03:38:09;;;;;;;7.05;3.20;;;;;;;19.94;45.72;100942.94;4171257;28;20060;-67
2022/07/15 03:40:13;;;;;;;12.20;3.00;;;;;;;19.96;45.46;100942.91;4170646;28;20037;-67
2022/07/15 03:42:16;;;;;;;5.90;2.17;;;;;;;19.90;45.72;100945.66;4168914;28;20044;-67
2022/07/15 03:44:20;;;;;;;10.45;3.20;;;;;;;19.96;45.48;100946.44;4178181;28;20597;-67
2022/07/15 03:46:23;;;;;;;7.57;3.47;;;;;;;19.87;45.60;100952.75;4178503;28;20118;-67
2022/07/15 03:48:31;;;;;;;5.97;2.25;;;;;;;19.83;45.48;100944.88;4173358;28;20155;-67
2022/07/15 03:50:35;;;;;;;7.03;2.30;;;;;;;19.77;45.70;100951.13;4162352;28;20041;-67
2022/07/15 03:52:39;;;;;;;5.45;2.28;;;;;;;19.69;46.05;100956.50;4178068;28;20041;-67
2022/07/15 03:54:42;;;;;;;8.98;2.80;;;;;;;19.70;46.32;100952.13;4178897;28;20086;-67
2022/07/15 03:56:47;;;;;;;13.05;2.60;;;;;;;19.79;46.13;100945.84;4178809;28;20124;-67
2022/07/15 03:58:50;;;;;;;8.05;2.95;;;;;;;19.74;46.11;100958.19;4171451;28;20040;-67
2022/07/15 04:00:53;;;;;;;9.25;2.70;;;;;;;19.67;45.89;100960.94;4160826;28;20041;-67
2022/07/15 04:02:56;;;;;;;5.28;2.72;;;;;;;19.62;46.23;100959.25;4176815;28;20518;-67
2022/07/15 04:05:00;;;;;;;5.88;2.30;;;;;;;19.67;46.40;100954.81;4176504;28;20087;-67
2022/07/15 04:07:04;;;;;;;8.80;2.70;;;;;;;19.67;46.61;100962.72;4178795;28;20033;-67
2022/07/15 04:09:09;;;;;;;7.55;3.25;;;;;;;19.68;46.38;100967.06;4175591;28;20110;-67
2022/07/15 04:11:14;;;;;;;9.43;3.67;;;;;;;19.70;46.57;100967.94;4178747;28;20044;-67
2022/07/15 04:13:18;;;;;;;6.57;2.17;;;;;;;19.62;46.70;100964.53;4166753;28;20037;-67
2022/07/15 04:15:21;;;;;;;11.23;3.13;;;;;;;19.69;46.33;100971.47;4194829;28;20059;-67
2022/07/15 04:17:24;;;;;;;10.60;2.65;;;;;;;19.63;46.47;100972.44;4174817;28;20061;-67
2022/07/15 04:19:27;;;;;;;11.57;3.55;;;;;;;19.66;46.06;100971.53;4178165;28;20151;-68
2022/07/15 04:21:33;;;;;;;10.70;3.42;;;;;;;19.62;46.08;100972.44;4178999;28;20037;-68
2022/07/15 04:23:39;;;;;;;5.50;2.40;;;;;;;19.66;45.64;100966.25;4174690;28;20132;-68
2022/07/15 04:25:44;;;;;;;8.90;3.22;;;;;;;19.61;45.80;100973.34;4174053;28;20072;-67
2022/07/15 04:27:49;;;;;;;8.70;2.00;;;;;;;19.54;46.11;100980.50;4178108;28;20037;-68
2022/07/15 04:29:57;;;;;;;7.90;2.60;;;;;;;19.46;46.18;100979.72;4178931;28;20047;-67
2022/07/15 04:32:04;;;;;;;5.72;2.63;;;;;;;19.45;46.12;100978.84;4176635;28;20044;-68
2022/07/15 04:34:11;;;;;;;7.40;2.55;;;;;;;19.49;46.13;100979.66;4178818;28;20032;-68
2022/07/15 04:36:17;;;;;;;5.55;2.63;;;;;;;19.50;46.15;100979.66;4178990;28;20460;-67
2022/07/15 04:38:20;;;;;;;8.27;2.45;;;;;;;19.46;46.24;100977.06;4177490;28;20064;-66
2022/07/15 04:40:24;;;;;;;8.10;2.20;;;;;;;19.47;45.55;100971.78;4180102;28;20033;-67
2022/07/15 04:42:28;;;;;;;10.98;2.67;;;;;;;19.49;45.81;100977.94;4160258;28;20103;-68
2022/07/15 04:44:31;;;;;;;6.00;2.17;;;;;;;19.48;46.10;100973.53;4181843;28;20075;-68
2022/07/15 04:46:34;;;;;;;7.80;2.53;;;;;;;19.54;45.77;100980.50;4179583;28;20033;-68
2022/07/15 04:51:18;;;;;;;12.05;2.80;;;;;;;19.51;46.17;100983.19;4189538;28;20126;-67
2022/07/15 04:53:21;;;;;;;10.60;2.63;;;;;;;19.58;45.71;100989.22;4177060;28;20038;-67
2022/07/15 04:55:27;;;;;;;6.60;1.95;;;;;;;19.53;45.65;100986.66;4181096;28;20120;-67
2022/07/15 04:57:38;;;;;;;6.03;2.33;;;;;;;19.52;46.15;100983.16;4181761;28;20041;-67
2022/07/15 04:59:41;;;;;;;10.75;3.10;;;;;;;19.70;45.36;100989.91;4180255;28;20071;-67
2022/07/15 05:01:48;;;;;;;7.63;2.45;;;;;;;19.58;45.94;100986.56;4159365;28;20042;-67
2022/07/15 05:03:59;;;;;;;8.05;3.38;;;;;;;19.59;45.45;100994.47;4172567;28;20125;-67
2022/07/15 05:06:01;;;;;;;7.30;2.38;;;;;;;19.63;45.82;101000.59;4177156;28;20045;-67
2022/07/15 05:08:09;;;;;;;8.38;2.80;;;;;;;19.57;46.10;100998.03;4180784;28;20041;-67
2022/07/15 05:10:19;;;;;;;8.32;2.40;;;;;;;19.63;45.66;100992.66;4179484;28;20056;-66
2022/07/15 05:12:30;;;;;;;10.25;3.10;;;;;;;19.53;45.87;100998.06;4168592;28;20042;-67
2022/07/15 05:14:34;;;;;;;8.63;2.72;;;;;;;19.61;46.07;100994.44;4181387;28;20068;-67
2022/07/15 05:16:36;;;;;;;4.70;2.05;;;;;;;19.60;45.86;100993.56;4181632;28;20124;-67
2022/07/15 05:18:42;;;;;;;7.35;2.88;;;;;;;19.63;45.51;101005.84;4179039;28;20052;-68
2022/07/15 05:20:45;;;;;;;9.93;2.58;;;;;;;19.59;45.68;101001.53;4177198;28;20641;-67
2022/07/15 05:22:50;;;;;;;5.72;2.20;;;;;;;19.62;45.83;101010.25;4179649;28;20037;-67
2022/07/15 05:24:54;;;;;;;11.38;2.70;;;;;;;19.63;45.73;101003.22;4180598;28;20408;-67
2022/07/15 05:26:58;;;;;;;7.13;2.92;;;;;;;19.75;45.38;101013.56;4180633;28;20511;-68
2022/07/15 05:29:07;;;;;;;9.52;3.65;;;;;;;19.75;45.16;101013.56;4181161;28;20139;-68
2022/07/15 05:31:10;;;;;;;13.48;3.30;;;;;;;19.73;45.46;101012.75;4173840;28;20053;-67
2022/07/15 05:33:16;;;;;;;17.25;3.17;;;;;;;19.78;45.32;101015.31;4177902;28;20110;-68
2022/07/15 05:35:19;;;;;;;6.13;2.17;;;;;;;19.92;46.94;101017.75;4173522;28;20033;-61
2022/07/15 05:37:22;;;;;;;9.38;2.72;;;;;;;20.03;47.11;101015.81;4176904;28;20048;-61
2022/07/15 05:40:09;;;;;;;10.52;3.88;;;;;;;20.31;45.84;101018.00;4177364;28;20060;-61
2022/07/15 05:42:18;;;;;;;8.65;2.53;;;;;;;20.35;45.36;101017.91;4176640;28;20096;-61
2022/07/15 05:44:22;;;;;;;8.18;2.85;;;;;;;20.48;44.90;101023.84;4177259;28;20033;-61
2022/07/15 05:46:26;;;;;;;8.23;2.22;;;;;;;20.55;45.39;101020.19;4177950;28;20487;-61
2022/07/15 05:48:35;;;;;;;12.02;2.20;;;;;;;20.61;44.81;101021.88;4176080;28;20557;-61
2022/07/15 05:50:38;;;;;;;11.43;3.13;;;;;;;20.73;44.39;101016.41;4179399;28;20041;-61
2022/07/15 05:52:43;;;;;;;8.50;2.88;;;;;;;20.76;44.23;101020.72;4174408;28;20043;-62
2022/07/15 05:54:47;;;;;;;10.40;3.00;;;;;;;20.79;43.89;101020.66;4180486;28;20060;-61
2022/07/15 05:56:50;;;;;;;10.50;2.60;;;;;;;20.72;43.76;101027.88;4175233;28;20060;-61
2022/07/15 05:58:57;;;;;;;9.55;2.40;;;;;;;20.66;43.72;101027.97;4156032;28;20099;-61
2022/07/15 06:01:07;;;;;;;16.27;2.92;;;;;;;20.80;43.59;101022.41;4199477;28;20033;-61
2022/07/15 06:03:14;;;;;;;7.18;3.03;;;;;;;20.78;43.85;101034.81;4165021;28;20051;-61
2022/07/15 06:05:20;;;;;;;11.07;2.78;;;;;;;20.89;43.07;101029.31;4169666;28;20036;-61
2022/07/15 06:07:27;;;;;;;9.65;3.30;;;;;;;20.79;43.17;101033.03;4179499;28;20585;-61
2022/07/15 06:09:30;;;;;;;11.70;2.40;;;;;;;20.86;43.22;101032.00;4169012;28;20037;-61
2022/07/15 06:11:34;;;;;;;9.85;2.90;;;;;;;20.77;43.00;101026.91;4176404;28;20059;-61
2022/07/15 06:13:37;;;;;;;10.43;2.55;;;;;;;20.68;42.98;101034.09;4170558;28;20041;-61
2022/07/15 06:15:41;;;;;;;11.02;2.85;;;;;;;20.66;43.38;101046.47;4192828;28;20032;-61
2022/07/15 06:17:49;;;;;;;6.63;2.85;;;;;;;20.58;43.17;101045.69;4162682;28;20136;-61
2022/07/15 06:19:54;;;;;;;13.88;2.90;;;;;;;20.67;43.16;101048.19;4179949;28;20072;-61
2022/07/15 06:21:57;;;;;;;15.60;3.38;;;;;;;20.48;43.88;101049.41;4178740;28;20048;-61
2022/07/15 06:24:00;;;;;;;7.65;2.78;;;;;;;20.54;43.84;101051.94;4165305;28;20149;-61
2022/07/15 06:26:03;;;;;;;8.80;2.72;;;;;;;20.49;43.81;101056.44;4179549;28;20068;-61
2022/07/15 06:28:06;;;;;;;10.52;2.85;;;;;;;20.41;43.93;101048.63;4162060;28;20084;-61
2022/07/15 06:30:10;;;;;;;8.65;2.65;;;;;;;20.49;44.07;101049.38;4173120;28;20471;-60
2022/07/15 06:32:13;;;;;;;8.77;2.60;;;;;;;20.63;43.93;101051.75;4173192;28;20048;-58
2022/07/15 06:34:18;;;;;;;10.55;3.67;;;;;;;20.78;43.55;101055.94;4177532;28;20044;-57
2022/07/15 06:36:23;;;;;;;10.05;3.00;;;;;;;20.93;42.83;101045.06;4181165;28;20036;-58
2022/07/15 06:38:27;;;;;;;10.07;3.28;;;;;;;20.90;43.00;101052.19;4170101;28;20041;-54
2022/07/15 06:40:30;;;;;;;5.95;2.47;;;;;;;20.80;43.02;101043.56;4179757;28;20041;-55
2022/07/15 06:42:33;;;;;;;7.32;2.78;;;;;;;20.86;43.13;101055.78;4177952;28;20048;-58
2022/07/15 06:44:41;;;;;;;10.07;2.38;;;;;;;20.77;42.89;101048.91;4179243;28;20044;-58
2022/07/15 06:46:44;;;;;;;6.97;2.53;;;;;;;20.77;42.77;101058.63;4151178;28;20495;-58
2022/07/15 06:48:47;;;;;;;11.30;2.47;;;;;;;20.81;43.01;101047.97;4180081;28;20061;-59
2022/07/15 06:50:52;;;;;;;5.13;2.17;;;;;;;20.86;42.80;101043.44;4151846;28;20086;-58
2022/07/15 06:52:55;;;;;;;6.78;2.10;;;;;;;20.88;42.66;101041.66;4175908;28;20107;-58
2022/07/15 06:54:58;;;;;;;12.15;2.50;;;;;;;21.06;42.40;101037.78;4163357;28;20056;-59
2022/07/15 06:57:01;;;;;;;6.45;2.58;;;;;;;21.05;42.90;101051.88;4174470;28;20067;-58
2022/07/15 06:59:04;;;;;;;4.68;2.30;;;;;;;21.05;42.05;101053.66;4179383;28;20033;-59
2022/07/15 07:01:08;;;;;;;7.88;2.20;;;;;;;21.10;42.11;101050.03;4160115;28;20426;-58
2022/07/15 07:03:11;;;;;;;11.18;3.38;;;;;;;21.31;41.38;101046.97;4178625;28;20482;-58
2022/07/15 07:05:14;;;;;;;11.00;2.25;;;;;;;21.00;42.73;101055.53;4177562;28;20044;-59
2022/07/15 07:07:19;;;;;;;8.52;1.90;;;;;;;21.15;42.23;101054.34;4171746;28;20066;-58
2022/07/15 07:09:22;;;;;;;5.95;2.25;;;;;;;21.12;42.78;101049.13;4164362;28;20161;-58
2022/07/15 07:11:27;;;;;;;5.68;2.30;;;;;;;21.21;42.16;101041.88;4171253;28;20109;-54
2022/07/15 07:13:30;;;;;;;9.32;2.20;;;;;;;21.29;42.72;101036.44;4172265;28;20563;-59
2022/07/15 07:15:33;;;;;;;9.18;2.53;;;;;;;21.52;42.10;101050.97;4165158;28;20083;-60
2022/07/15 07:17:40;;;;;;;7.85;2.58;;;;;;;21.43;41.42;101041.41;4170048;28;20047;-59
2022/07/15 07:19:43;;;;;;;7.38;1.80;;;;;;;21.46;41.68;101030.75;4169584;28;21932;-59
2022/07/15 07:21:46;;;;;;;8.35;2.63;;;;;;;21.65;40.77;101038.34;4162360;28;20043;-59
2022/07/15 07:23:51;;;;;;;6.85;2.03;;;;;;;21.53;40.69;101040.34;4175424;28;20060;-59
2022/07/15 07:25:54;;;;;;;7.80;1.95;;;;;;;21.63;40.75;101040.16;4177746;28;20131;-59
2022/07/15 07:28:00;;;;;;;7.90;2.47;;;;;;;21.52;40.64;101043.03;4180191;28;20186;-59
2022/07/15 07:30:04;;;;;;;9.80;2.47;;;;;;;21.42;41.19;101040.56;4195288;28;20033;-59
2022/07/15 07:32:07;;;;;;;13.77;3.03;;;;;;;21.27;41.70;101040.88;4195204;28;20478;-59
2022/07/15 07:34:10;;;;;;;12.68;2.42;;;;;;;21.30;41.51;101042.59;4197071;28;20028;-59
2022/07/15 07:36:13;;;;;;;7.30;2.40;;;;;;;21.34;41.65;101038.97;4197185;28;20151;-59
2022/07/15 07:38:16;;;;;;;7.35;2.25;;;;;;;21.31;41.97;101047.84;4197294;28;20040;-59
2022/07/15 07:40:48;;;;;;;5.50;2.25;;;;;;;21.42;42.02;101032.63;4189000;28;20044;-59
2022/07/15 07:42:51;;;;;;;9.55;2.53;;;;;;;21.68;40.39;101038.25;4191527;28;20131;-59
2022/07/15 07:44:55;;;;;;;5.22;2.30;;;;;;;21.43;41.62;101036.13;4194041;28;20498;-59
2022/07/15 07:46:58;;;;;;;4.55;1.95;;;;;;;21.52;41.97;101038.59;4193868;28;20495;-60
2022/07/15 07:49:01;;;;;;;5.43;1.90;;;;;;;21.49;40.93;101035.13;4194638;28;20154;-60
2022/07/15 07:51:24;;;;;;;6.57;1.67;;;;;;;21.53;40.74;101035.06;4192196;28;20043;-60
2022/07/15 07:53:27;;;;;;;4.85;1.77;;;;;;;21.56;40.46;101031.47;4195254;28;20087;-59
2022/07/15 07:55:31;;;;;;;6.80;1.60;;;;;;;21.73;40.81;101041.69;4195006;28;20043;-59
2022/07/15 07:57:34;;;;;;;;;;;;;;;21.75;41.03;101032.78;4192395;28;20040;-53
2022/07/15 07:59:37;;;;;;;6.80;1.70;;;;;;;22.08;40.02;101040.00;4195898;28;20015;-54
2022/07/15 08:01:40;;;;;;;6.15;1.70;;;;;;;22.12;39.81;101038.97;4206800;28;20062;-54
2022/07/15 08:03:45;;;;;;;10.13;2.40;;;;;;;22.13;39.86;101040.72;4198911;28;20041;-54
2022/07/15 08:05:48;;;;;;;6.47;2.03;;;;;;;22.18;38.99;101046.81;4196762;28;20033;-55
2022/07/15 08:07:52;;;;;;;8.88;1.85;;;;;;;22.06;38.88;101039.13;4196773;28;20040;-54
2022/07/15 08:09:55;;;;;;;6.97;2.05;;;;;;;22.16;39.40;101040.66;4181296;28;20526;-50
2022/07/15 08:11:59;;;;;;;3.17;1.65;;;;;;;22.14;39.03;101045.13;4190750;28;20045;-55
2022/07/15 08:14:02;;;;;;;7.25;2.40;;;;;;;22.21;39.12;101046.72;4194973;28;20036;-51
2022/07/15 08:16:06;;;;;;;7.32;2.33;;;;;;;22.20;39.28;101049.41;4194435;28;20033;-54
2022/07/15 08:18:11;;;;;;;7.65;2.30;;;;;;;22.34;38.47;101043.78;4196855;28;20431;-54
2022/07/15 08:20:14;;;;;;;4.00;1.95;;;;;;;22.14;39.44;101034.53;4198626;28;20040;-54
2022/07/15 08:22:18;;;;;;;9.05;1.83;;;;;;;22.28;39.29;101043.00;4188003;28;20453;-54
2022/07/15 08:24:21;;;;;;;6.07;1.85;;;;;;;22.40;39.41;101040.97;4198520;28;20044;-54
2022/07/15 08:26:24;;;;;;;4.20;1.30;;;;;;;22.51;39.35;101038.91;4201449;28;20486;-55
2022/07/15 08:28:28;;;;;;;4.80;1.95;;;;;;;22.37;39.11;101039.28;4201588;28;20041;-53
2022/07/15 08:30:51;;;;;;;4.22;1.58;;;;;;;22.41;37.91;101050.66;4206495;28;20039;-57
2022/07/15 08:32:55;;;;;;;7.07;2.15;;;;;;;22.24;38.60;101041.34;4191155;28;20120;-59
2022/07/15 08:34:58;;;;;;;5.45;1.52;;;;;;;22.04;39.20;101041.81;4195314;28;20495;-57
2022/07/15 08:37:06;;;;;;;4.15;1.50;;;;;;;21.85;39.28;101040.53;4192352;28;20032;-67
2022/07/15 08:39:09;;;;;;;8.57;1.90;;;;;;;21.92;39.51;101044.78;4197934;28;20032;-67
2022/07/15 08:41:12;;;;;;;4.57;1.85;;;;;;;22.05;39.07;101054.16;4191440;28;20038;-66
2022/07/15 08:43:15;;;;;;;4.28;1.30;;;;;;;21.97;39.58;101054.31;4174657;28;20079;-67
2022/07/15 08:45:20;;;;;;;6.68;2.28;;;;;;;22.23;39.26;101044.88;4205719;28;20040;-66
2022/07/15 08:47:23;;;;;;;4.72;1.63;;;;;;;22.38;38.58;101042.78;4191213;28;20070;-67
2022/07/15 08:49:49;;;;;;;7.00;1.95;;;;;;;22.39;37.89;101039.25;4193967;28;20041;-66
2022/07/15 08:51:57;;;;;;;4.20;1.60;;;;;;;22.34;38.65;101044.66;4197510;28;20509;-67
2022/07/15 08:54:02;;;;;;;6.82;2.92;;;;;;;22.55;38.34;101053.84;4199748;28;20052;-66
2022/07/15 08:56:06;;;;;;;5.53;1.42;;;;;;;22.48;38.28;101042.50;4199593;28;20044;-67
2022/07/15 08:58:09;;;;;;;6.45;1.67;;;;;;;22.40;38.28;101043.63;4199571;28;20048;-67
2022/07/15 09:00:13;;;;;;;6.90;1.70;;;;;;;22.47;38.75;101053.16;4195338;28;20037;-67
2022/07/15 09:02:20;;;;;;;6.05;1.70;;;;;;;22.51;38.58;101054.81;4190679;28;20028;-67
2022/07/15 09:04:23;;;;;;;7.90;2.22;;;;;;;22.53;38.45;101047.72;4199374;28;20068;-66
2022/07/15 09:06:34;;;;;;;10.40;2.83;;;;;;;22.57;38.46;101059.09;4199403;28;20131;-67
2022/07/15 09:08:36;;;;;;;5.85;1.63;;;;;;;22.43;38.41;101047.06;4199295;28;20413;-67
2022/07/15 09:10:46;;;;;;;6.43;1.98;;;;;;;22.53;38.29;101046.81;4199243;28;20131;-67
2022/07/15 09:12:51;;;;;;;8.25;2.17;;;;;;;22.41;39.10;101050.66;4197066;28;20044;-67
2022/07/15 09:14:53;;;;;;;7.32;1.83;;;;;;;22.44;38.65;101047.94;4195836;28;20168;-67
2022/07/15 09:17:07;;;;;;;7.07;1.75;;;;;;;22.57;38.65;101046.69;4198073;28;20042;-67
2022/07/15 09:19:12;;;;;;;6.82;1.75;;;;;;;22.73;38.50;101056.91;4199206;28;20095;-66
2022/07/15 09:21:17;;;;;;;6.22;2.08;;;;;;;22.78;37.66;101050.56;4196346;28;20063;-67
2022/07/15 09:23:29;;;;;;;4.15;1.65;;;;;;;22.63;38.67;101046.56;4189428;28;20396;-67
2022/07/15 09:25:34;;;;;;;5.38;1.90;;;;;;;22.75;38.81;101048.00;4199185;28;20044;-67
2022/07/15 09:27:38;;;;;;;6.90;2.20;;;;;;;22.90;37.88;101049.34;4198606;28;20033;-66
2022/07/15 09:34:25;;;;;;;9.27;2.15;;;;;;;23.25;37.20;101051.97;4199136;28;20134;-67
2022/07/15 09:36:31;;;;;;;3.78;1.48;;;;;;;23.09;37.27;101049.72;4192680;28;20040;-67
2022/07/15 09:38:40;;;;;;;4.40;1.67;;;;;;;23.28;37.50;101046.56;4198926;28;20043;-67
2022/07/15 09:40:49;;;;;;;6.68;1.88;;;;;;;23.27;37.87;101042.16;4199006;28;20048;-67
2022/07/15 09:43:04;;;;;;;7.80;2.28;;;;;;;23.40;36.42;101047.97;4198178;28;20475;-68
2022/07/15 09:45:20;;;;;;;5.63;1.90;;;;;;;23.55;36.27;101047.50;4198063;28;20059;-67
2022/07/15 09:47:24;;;;;;;3.90;1.50;;;;;;;23.44;36.72;101042.53;4197500;28;20089;-67
2022/07/15 09:49:38;;;;;;;3.90;1.55;;;;;;;23.60;36.95;101044.72;4195979;28;20040;-65